sensor_id;sensor_type;location;lat;lon;timestamp;temperature;humidity
43015;DHT22;28637;50.554;7.032;2023-08-01T00:02:53;17.10;99.90
43015;DHT22;28637;50.554;7.032;2023-08-01T00:07:54;17.00;99.90
43015;DHT22;28637;50.554;7.032;2023-08-01T00:12:54;16.90;99.90
43015;DHT22;28637;50.554;7.032;2023-08-01T00:17:55;16.90;99.90
43015;DHT22;28637;50.554;7.032;2023-08-01T00:22:55;16.90;99.90
43015;DHT22;28637;50.554;7.032;2023-08-01T00:27:56;16.90;99.90
43015;DHT22;28637;50.554;7.032;2023-08-01T00:32:57;16.90;99.90
43015;DHT22;28637;50.554;7.032;2023-08-01T00:37:57;16.90;99.90
43015;DHT22;28637;50.554;7.032;2023-08-01T00:42:58;16.90;99.90
43015;DHT22;28637;50.554;7.032;2023-08-01T00:47:59;17.00;99.90
43015;DHT22;28637;50.554;7.032;2023-08-01T00:52:59;17.00;99.90
43015;DHT22;28637;50.554;7.032;2023-08-01T00:58:00;17.00;99.90
43015;DHT22;28637;50.554;7.032;2023-08-01T01:03:01;17.10;99.90
43015;DHT22;28637;50.554;7.032;2023-08-01T01:08:02;17.10;99.90
43015;DHT22;28637;50.554;7.032;2023-08-01T01:13:02;17.20;99.90
43015;DHT22;28637;50.554;7.032;2023-08-01T01:18:03;17.30;99.90
43015;DHT22;28637;50.554;7.032;2023-08-01T01:23:04;17.20;99.90
43015;DHT22;28637;50.554;7.032;2023-08-01T01:28:05;17.20;99.90
43015;DHT22;28637;50.554;7.032;2023-08-01T01:33:07;17.30;99.90
43015;DHT22;28637;50.554;7.032;2023-08-01T01:38:09;17.20;99.90
43015;DHT22;28637;50.554;7.032;2023-08-01T01:43:09;17.30;99.90
43015;DHT22;28637;50.554;7.032;2023-08-01T01:48:10;17.30;99.90
43015;DHT22;28637;50.554;7.032;2023-08-01T01:53:10;17.30;99.90
43015;DHT22;28637;50.554;7.032;2023-08-01T01:58:11;17.30;99.90
43015;DHT22;28637;50.554;7.032;2023-08-01T02:03:12;17.20;99.90
43015;DHT22;28637;50.554;7.032;2023-08-01T02:08:13;17.30;99.90
43015;DHT22;28637;50.554;7.032;2023-08-01T02:13:13;17.30;99.90
43015;DHT22;28637;50.554;7.032;2023-08-01T02:18:14;17.30;99.90
43015;DHT22;28637;50.554;7.032;2023-08-01T02:23:14;17.40;99.90
43015;DHT22;28637;50.554;7.032;2023-08-01T02:28:15;17.40;99.90
43015;DHT22;28637;50.554;7.032;2023-08-01T02:33:16;17.40;99.90
43015;DHT22;28637;50.554;7.032;2023-08-01T02:38:16;17.50;99.90
43015;DHT22;28637;50.554;7.032;2023-08-01T02:43:17;17.60;99.90
43015;DHT22;28637;50.554;7.032;2023-08-01T02:48:17;17.50;99.90
43015;DHT22;28637;50.554;7.032;2023-08-01T02:53:18;17.40;99.90
43015;DHT22;28637;50.554;7.032;2023-08-01T02:58:18;17.30;99.90
43015;DHT22;28637;50.554;7.032;2023-08-01T03:03:19;17.30;99.90
43015;DHT22;28637;50.554;7.032;2023-08-01T03:08:20;17.20;99.90
43015;DHT22;28637;50.554;7.032;2023-08-01T03:13:21;17.20;99.90
43015;DHT22;28637;50.554;7.032;2023-08-01T03:18:21;17.30;99.90
43015;DHT22;28637;50.554;7.032;2023-08-01T03:23:22;17.20;99.90
43015;DHT22;28637;50.554;7.032;2023-08-01T03:28:23;17.10;99.90
43015;DHT22;28637;50.554;7.032;2023-08-01T03:33:24;17.00;99.90
43015;DHT22;28637;50.554;7.032;2023-08-01T03:38:24;16.90;99.90
43015;DHT22;28637;50.554;7.032;2023-08-01T03:43:25;16.80;99.90
43015;DHT22;28637;50.554;7.032;2023-08-01T03:48:25;16.70;99.90
43015;DHT22;28637;50.554;7.032;2023-08-01T03:53:26;16.70;99.90
43015;DHT22;28637;50.554;7.032;2023-08-01T03:58:26;16.50;99.90
43015;DHT22;28637;50.554;7.032;2023-08-01T04:03:27;16.20;99.90
43015;DHT22;28637;50.554;7.032;2023-08-01T04:08:28;16.10;99.90
43015;DHT22;28637;50.554;7.032;2023-08-01T04:13:29;16.20;99.90
43015;DHT22;28637;50.554;7.032;2023-08-01T04:18:29;16.30;99.90
43015;DHT22;28637;50.554;7.032;2023-08-01T04:23:30;16.20;99.90
43015;DHT22;28637;50.554;7.032;2023-08-01T04:28:30;16.10;99.90
43015;DHT22;28637;50.554;7.032;2023-08-01T04:33:31;16.00;99.90
43015;DHT22;28637;50.554;7.032;2023-08-01T04:38:31;16.00;99.90
43015;DHT22;28637;50.554;7.032;2023-08-01T04:43:32;15.90;99.90
43015;DHT22;28637;50.554;7.032;2023-08-01T04:48:32;15.90;99.90
43015;DHT22;28637;50.554;7.032;2023-08-01T04:53:33;15.80;99.90
43015;DHT22;28637;50.554;7.032;2023-08-01T04:58:33;15.80;99.90
43015;DHT22;28637;50.554;7.032;2023-08-01T05:03:34;15.80;99.90
43015;DHT22;28637;50.554;7.032;2023-08-01T05:08:34;15.70;99.90
43015;DHT22;28637;50.554;7.032;2023-08-01T05:13:35;15.70;99.90
43015;DHT22;28637;50.554;7.032;2023-08-01T05:18:36;15.80;99.90
43015;DHT22;28637;50.554;7.032;2023-08-01T05:23:36;15.90;99.90
43015;DHT22;28637;50.554;7.032;2023-08-01T05:28:37;15.90;99.90
43015;DHT22;28637;50.554;7.032;2023-08-01T05:33:37;15.90;99.90
43015;DHT22;28637;50.554;7.032;2023-08-01T05:38:38;15.90;99.90
43015;DHT22;28637;50.554;7.032;2023-08-01T05:43:38;15.90;99.90
43015;DHT22;28637;50.554;7.032;2023-08-01T05:48:39;15.80;99.90
43015;DHT22;28637;50.554;7.032;2023-08-01T05:53:40;15.90;99.90
43015;DHT22;28637;50.554;7.032;2023-08-01T05:58:40;15.70;99.90
43015;DHT22;28637;50.554;7.032;2023-08-01T06:03:41;15.60;99.90
43015;DHT22;28637;50.554;7.032;2023-08-01T06:08:41;15.60;99.90
43015;DHT22;28637;50.554;7.032;2023-08-01T06:13:42;15.60;99.90
43015;DHT22;28637;50.554;7.032;2023-08-01T06:18:42;15.60;99.90
43015;DHT22;28637;50.554;7.032;2023-08-01T06:23:43;15.70;99.90
43015;DHT22;28637;50.554;7.032;2023-08-01T06:28:43;15.70;99.90
43015;DHT22;28637;50.554;7.032;2023-08-01T06:33:44;15.80;99.90
43015;DHT22;28637;50.554;7.032;2023-08-01T06:38:44;15.90;99.90
43015;DHT22;28637;50.554;7.032;2023-08-01T06:43:46;16.20;99.90
43015;DHT22;28637;50.554;7.032;2023-08-01T06:48:46;16.50;99.90
43015;DHT22;28637;50.554;7.032;2023-08-01T06:53:47;16.70;99.90
43015;DHT22;28637;50.554;7.032;2023-08-01T06:58:48;16.90;99.90
43015;DHT22;28637;50.554;7.032;2023-08-01T07:03:48;16.80;99.90
43015;DHT22;28637;50.554;7.032;2023-08-01T07:08:51;16.90;99.90
43015;DHT22;28637;50.554;7.032;2023-08-01T07:13:52;16.90;99.90
43015;DHT22;28637;50.554;7.032;2023-08-01T07:18:52;16.90;99.90
43015;DHT22;28637;50.554;7.032;2023-08-01T07:23:53;17.00;99.90
43015;DHT22;28637;50.554;7.032;2023-08-01T07:28:54;17.10;99.90
43015;DHT22;28637;50.554;7.032;2023-08-01T07:33:54;17.20;99.90
43015;DHT22;28637;50.554;7.032;2023-08-01T07:38:55;17.20;99.90
43015;DHT22;28637;50.554;7.032;2023-08-01T07:43:56;17.10;99.90
43015;DHT22;28637;50.554;7.032;2023-08-01T07:48:57;17.10;99.90
43015;DHT22;28637;50.554;7.032;2023-08-01T07:53:57;17.00;99.90
43015;DHT22;28637;50.554;7.032;2023-08-01T07:58:58;16.90;99.90
43015;DHT22;28637;50.554;7.032;2023-08-01T08:03:59;17.20;99.90
43015;DHT22;28637;50.554;7.032;2023-08-01T08:08:59;17.30;99.90
43015;DHT22;28637;50.554;7.032;2023-08-01T08:14:00;17.60;99.90
43015;DHT22;28637;50.554;7.032;2023-08-01T08:19:00;17.60;99.90
43015;DHT22;28637;50.554;7.032;2023-08-01T08:24:01;17.40;99.90
43015;DHT22;28637;50.554;7.032;2023-08-01T08:29:01;17.60;99.90
43015;DHT22;28637;50.554;7.032;2023-08-01T08:34:02;17.80;99.90
43015;DHT22;28637;50.554;7.032;2023-08-01T08:39:03;18.10;99.90
43015;DHT22;28637;50.554;7.032;2023-08-01T08:44:04;18.30;99.90
43015;DHT22;28637;50.554;7.032;2023-08-01T08:49:07;18.60;99.90
43015;DHT22;28637;50.554;7.032;2023-08-01T08:54:08;18.80;99.90
43015;DHT22;28637;50.554;7.032;2023-08-01T08:59:09;18.70;99.90
43015;DHT22;28637;50.554;7.032;2023-08-01T09:04:10;18.70;99.90
43015;DHT22;28637;50.554;7.032;2023-08-01T09:09:11;18.80;99.90
43015;DHT22;28637;50.554;7.032;2023-08-01T09:14:12;18.90;99.90
43015;DHT22;28637;50.554;7.032;2023-08-01T09:19:16;19.00;99.90
43015;DHT22;28637;50.554;7.032;2023-08-01T09:24:18;19.10;99.90
43015;DHT22;28637;50.554;7.032;2023-08-01T09:29:19;19.40;99.90
43015;DHT22;28637;50.554;7.032;2023-08-01T09:34:23;19.40;99.90
43015;DHT22;28637;50.554;7.032;2023-08-01T09:39:24;19.20;99.90
43015;DHT22;28637;50.554;7.032;2023-08-01T09:44:25;19.10;99.90
43015;DHT22;28637;50.554;7.032;2023-08-01T09:49:26;19.20;99.90
43015;DHT22;28637;50.554;7.032;2023-08-01T09:54:27;19.20;99.90
43015;DHT22;28637;50.554;7.032;2023-08-01T09:59:28;19.30;99.90
43015;DHT22;28637;50.554;7.032;2023-08-01T10:04:30;19.10;99.90
43015;DHT22;28637;50.554;7.032;2023-08-01T10:09:31;18.90;99.90
43015;DHT22;28637;50.554;7.032;2023-08-01T10:14:32;18.70;99.90
43015;DHT22;28637;50.554;7.032;2023-08-01T10:19:33;18.80;99.90
43015;DHT22;28637;50.554;7.032;2023-08-01T10:24:33;19.10;99.90
43015;DHT22;28637;50.554;7.032;2023-08-01T10:29:35;19.20;99.90
43015;DHT22;28637;50.554;7.032;2023-08-01T10:34:36;19.10;99.90
43015;DHT22;28637;50.554;7.032;2023-08-01T10:39:36;19.30;99.90
43015;DHT22;28637;50.554;7.032;2023-08-01T10:44:44;19.70;99.90
43015;DHT22;28637;50.554;7.032;2023-08-01T10:49:45;19.70;99.90
43015;DHT22;28637;50.554;7.032;2023-08-01T10:54:46;19.80;99.90
43015;DHT22;28637;50.554;7.032;2023-08-01T10:59:47;19.90;99.90
43015;DHT22;28637;50.554;7.032;2023-08-01T11:04:57;20.10;99.90
43015;DHT22;28637;50.554;7.032;2023-08-01T11:15:11;20.40;99.90
43015;DHT22;28637;50.554;7.032;2023-08-01T11:20:11;20.60;99.90
43015;DHT22;28637;50.554;7.032;2023-08-01T11:25:12;20.30;99.90
43015;DHT22;28637;50.554;7.032;2023-08-01T11:30:12;19.90;99.90
43015;DHT22;28637;50.554;7.032;2023-08-01T11:35:17;19.80;99.90
43015;DHT22;28637;50.554;7.032;2023-08-01T11:40:17;20.30;99.90
43015;DHT22;28637;50.554;7.032;2023-08-01T11:45:19;20.20;99.90
43015;DHT22;28637;50.554;7.032;2023-08-01T11:50:21;19.70;99.90
43015;DHT22;28637;50.554;7.032;2023-08-01T11:55:25;19.20;99.90
43015;DHT22;28637;50.554;7.032;2023-08-01T12:00:27;19.00;99.90
43015;DHT22;28637;50.554;7.032;2023-08-01T12:05:27;19.00;99.90
43015;DHT22;28637;50.554;7.032;2023-08-01T12:10:36;19.10;99.90
43015;DHT22;28637;50.554;7.032;2023-08-01T12:15:37;19.40;99.90
43015;DHT22;28637;50.554;7.032;2023-08-01T12:20:37;19.60;99.90
43015;DHT22;28637;50.554;7.032;2023-08-01T12:25:38;19.80;99.90
43015;DHT22;28637;50.554;7.032;2023-08-01T12:30:39;20.00;99.90
43015;DHT22;28637;50.554;7.032;2023-08-01T12:35:40;20.00;99.90
43015;DHT22;28637;50.554;7.032;2023-08-01T12:40:41;20.60;99.90
43015;DHT22;28637;50.554;7.032;2023-08-01T12:45:43;20.10;99.90
43015;DHT22;28637;50.554;7.032;2023-08-01T12:50:44;19.80;99.90
43015;DHT22;28637;50.554;7.032;2023-08-01T12:55:46;19.50;99.90
43015;DHT22;28637;50.554;7.032;2023-08-01T13:00:46;19.30;99.90
43015;DHT22;28637;50.554;7.032;2023-08-01T13:05:47;18.60;99.90
43015;DHT22;28637;50.554;7.032;2023-08-01T13:10:48;18.00;99.90
43015;DHT22;28637;50.554;7.032;2023-08-01T13:15:50;17.90;99.90
43015;DHT22;28637;50.554;7.032;2023-08-01T13:20:50;18.30;99.90
43015;DHT22;28637;50.554;7.032;2023-08-01T13:25:51;18.70;99.90
43015;DHT22;28637;50.554;7.032;2023-08-01T13:30:51;19.30;99.90
43015;DHT22;28637;50.554;7.032;2023-08-01T13:35:52;19.70;99.90
43015;DHT22;28637;50.554;7.032;2023-08-01T13:40:54;19.70;99.90
43015;DHT22;28637;50.554;7.032;2023-08-01T13:45:54;19.40;99.90
43015;DHT22;28637;50.554;7.032;2023-08-01T13:50:57;19.30;99.90
43015;DHT22;28637;50.554;7.032;2023-08-01T13:55:57;19.40;99.90
43015;DHT22;28637;50.554;7.032;2023-08-01T14:01:02;19.30;99.90
43015;DHT22;28637;50.554;7.032;2023-08-01T14:06:06;19.00;99.90
43015;DHT22;28637;50.554;7.032;2023-08-01T14:11:08;18.60;99.90
43015;DHT22;28637;50.554;7.032;2023-08-01T14:16:08;18.40;99.90
43015;DHT22;28637;50.554;7.032;2023-08-01T14:21:09;18.30;99.90
43015;DHT22;28637;50.554;7.032;2023-08-01T14:26:10;17.90;99.90
43015;DHT22;28637;50.554;7.032;2023-08-01T14:31:10;17.70;99.90
43015;DHT22;28637;50.554;7.032;2023-08-01T14:36:11;17.60;99.90
43015;DHT22;28637;50.554;7.032;2023-08-01T14:41:12;17.40;99.90
43015;DHT22;28637;50.554;7.032;2023-08-01T14:46:15;17.40;99.90
43015;DHT22;28637;50.554;7.032;2023-08-01T14:51:15;17.60;99.90
43015;DHT22;28637;50.554;7.032;2023-08-01T14:56:16;17.80;99.90
43015;DHT22;28637;50.554;7.032;2023-08-01T15:01:16;18.10;99.90
43015;DHT22;28637;50.554;7.032;2023-08-01T15:06:18;19.10;99.90
43015;DHT22;28637;50.554;7.032;2023-08-01T15:11:20;19.70;99.90
43015;DHT22;28637;50.554;7.032;2023-08-01T15:16:21;19.90;99.90
43015;DHT22;28637;50.554;7.032;2023-08-01T15:21:21;19.80;99.90
43015;DHT22;28637;50.554;7.032;2023-08-01T15:26:25;20.10;99.90
43015;DHT22;28637;50.554;7.032;2023-08-01T15:31:26;20.70;99.90
43015;DHT22;28637;50.554;7.032;2023-08-01T15:36:27;21.10;99.90
43015;DHT22;28637;50.554;7.032;2023-08-01T15:41:28;20.60;99.90
43015;DHT22;28637;50.554;7.032;2023-08-01T15:46:28;20.40;99.90
43015;DHT22;28637;50.554;7.032;2023-08-01T15:51:29;20.20;99.90
43015;DHT22;28637;50.554;7.032;2023-08-01T15:56:30;20.40;99.90
43015;DHT22;28637;50.554;7.032;2023-08-01T16:01:30;20.60;99.90
43015;DHT22;28637;50.554;7.032;2023-08-01T16:06:31;20.30;99.90
43015;DHT22;28637;50.554;7.032;2023-08-01T16:11:31;20.20;99.90
43015;DHT22;28637;50.554;7.032;2023-08-01T16:16:32;20.20;99.90
43015;DHT22;28637;50.554;7.032;2023-08-01T16:21:32;20.10;99.90
43015;DHT22;28637;50.554;7.032;2023-08-01T16:26:33;19.60;99.90
43015;DHT22;28637;50.554;7.032;2023-08-01T16:31:33;19.30;99.90
43015;DHT22;28637;50.554;7.032;2023-08-01T16:36:34;19.20;99.90
43015;DHT22;28637;50.554;7.032;2023-08-01T16:41:35;19.10;99.90
43015;DHT22;28637;50.554;7.032;2023-08-01T16:46:35;19.20;99.90
43015;DHT22;28637;50.554;7.032;2023-08-01T16:51:36;19.50;99.90
43015;DHT22;28637;50.554;7.032;2023-08-01T16:56:36;19.70;99.90
43015;DHT22;28637;50.554;7.032;2023-08-01T17:01:37;19.90;99.90
43015;DHT22;28637;50.554;7.032;2023-08-01T17:06:37;20.10;99.90
43015;DHT22;28637;50.554;7.032;2023-08-01T17:11:39;20.30;99.90
43015;DHT22;28637;50.554;7.032;2023-08-01T17:16:40;20.40;99.90
43015;DHT22;28637;50.554;7.032;2023-08-01T17:21:41;20.20;99.90
43015;DHT22;28637;50.554;7.032;2023-08-01T17:26:42;19.90;99.90
43015;DHT22;28637;50.554;7.032;2023-08-01T17:31:42;19.30;99.90
43015;DHT22;28637;50.554;7.032;2023-08-01T17:36:43;19.00;99.90
43015;DHT22;28637;50.554;7.032;2023-08-01T17:41:43;18.60;99.90
43015;DHT22;28637;50.554;7.032;2023-08-01T17:46:44;18.50;99.90
43015;DHT22;28637;50.554;7.032;2023-08-01T17:51:44;18.40;99.90
43015;DHT22;28637;50.554;7.032;2023-08-01T17:56:45;18.40;99.90
43015;DHT22;28637;50.554;7.032;2023-08-01T18:01:45;18.30;99.90
43015;DHT22;28637;50.554;7.032;2023-08-01T18:06:47;18.30;99.90
43015;DHT22;28637;50.554;7.032;2023-08-01T18:11:47;18.30;99.90
43015;DHT22;28637;50.554;7.032;2023-08-01T18:16:48;18.30;99.90
43015;DHT22;28637;50.554;7.032;2023-08-01T18:21:48;18.40;99.90
43015;DHT22;28637;50.554;7.032;2023-08-01T18:26:49;18.30;99.90
43015;DHT22;28637;50.554;7.032;2023-08-01T18:31:50;18.20;99.90
43015;DHT22;28637;50.554;7.032;2023-08-01T18:36:50;18.10;99.90
43015;DHT22;28637;50.554;7.032;2023-08-01T18:41:51;18.00;99.90
43015;DHT22;28637;50.554;7.032;2023-08-01T18:46:54;18.10;99.90
43015;DHT22;28637;50.554;7.032;2023-08-01T18:51:54;18.10;99.90
43015;DHT22;28637;50.554;7.032;2023-08-01T18:56:55;18.10;99.90
43015;DHT22;28637;50.554;7.032;2023-08-01T19:01:56;18.40;99.90
43015;DHT22;28637;50.554;7.032;2023-08-01T19:06:57;18.30;99.90
43015;DHT22;28637;50.554;7.032;2023-08-01T19:12:02;18.10;99.90
43015;DHT22;28637;50.554;7.032;2023-08-01T19:17:03;17.90;99.90
43015;DHT22;28637;50.554;7.032;2023-08-01T19:22:03;17.70;99.90
43015;DHT22;28637;50.554;7.032;2023-08-01T19:27:05;17.60;99.90
43015;DHT22;28637;50.554;7.032;2023-08-01T19:32:06;17.50;99.90
43015;DHT22;28637;50.554;7.032;2023-08-01T19:37:07;17.40;99.90
43015;DHT22;28637;50.554;7.032;2023-08-01T19:42:07;17.30;99.90
43015;DHT22;28637;50.554;7.032;2023-08-01T19:47:08;17.20;99.90
43015;DHT22;28637;50.554;7.032;2023-08-01T19:52:09;17.00;99.90
43015;DHT22;28637;50.554;7.032;2023-08-01T19:57:09;17.00;99.90
43015;DHT22;28637;50.554;7.032;2023-08-01T20:02:10;16.90;99.90
43015;DHT22;28637;50.554;7.032;2023-08-01T20:07:10;16.90;99.90
43015;DHT22;28637;50.554;7.032;2023-08-01T20:12:11;16.80;99.90
43015;DHT22;28637;50.554;7.032;2023-08-01T20:17:11;16.70;99.90
43015;DHT22;28637;50.554;7.032;2023-08-01T20:22:12;16.60;99.90
43015;DHT22;28637;50.554;7.032;2023-08-01T20:27:13;16.60;99.90
43015;DHT22;28637;50.554;7.032;2023-08-01T20:32:14;16.40;99.90
43015;DHT22;28637;50.554;7.032;2023-08-01T20:37:14;16.40;99.90
43015;DHT22;28637;50.554;7.032;2023-08-01T20:42:15;16.20;99.90
43015;DHT22;28637;50.554;7.032;2023-08-01T20:47:15;16.00;99.90
43015;DHT22;28637;50.554;7.032;2023-08-01T20:52:16;16.00;99.90
43015;DHT22;28637;50.554;7.032;2023-08-01T20:57:16;16.10;99.90
43015;DHT22;28637;50.554;7.032;2023-08-01T21:02:17;16.20;99.90
43015;DHT22;28637;50.554;7.032;2023-08-01T21:07:17;16.30;99.90
43015;DHT22;28637;50.554;7.032;2023-08-01T21:12:19;16.30;99.90
43015;DHT22;28637;50.554;7.032;2023-08-01T21:17:20;16.30;99.90
43015;DHT22;28637;50.554;7.032;2023-08-01T21:22:20;16.40;99.90
43015;DHT22;28637;50.554;7.032;2023-08-01T21:27:21;16.50;99.90
43015;DHT22;28637;50.554;7.032;2023-08-01T21:32:21;16.50;99.90
43015;DHT22;28637;50.554;7.032;2023-08-01T21:37:22;16.50;99.90
43015;DHT22;28637;50.554;7.032;2023-08-01T21:42:23;16.60;99.90
43015;DHT22;28637;50.554;7.032;2023-08-01T21:47:24;16.60;99.90
43015;DHT22;28637;50.554;7.032;2023-08-01T21:52:24;16.60;99.90
43015;DHT22;28637;50.554;7.032;2023-08-01T21:57:25;16.50;99.90
43015;DHT22;28637;50.554;7.032;2023-08-01T22:02:25;16.50;99.90
43015;DHT22;28637;50.554;7.032;2023-08-01T22:07:26;16.50;99.90
43015;DHT22;28637;50.554;7.032;2023-08-01T22:12:27;16.40;99.90
43015;DHT22;28637;50.554;7.032;2023-08-01T22:17:27;16.30;99.90
43015;DHT22;28637;50.554;7.032;2023-08-01T22:22:28;16.40;99.90
43015;DHT22;28637;50.554;7.032;2023-08-01T22:27:28;16.30;99.90
43015;DHT22;28637;50.554;7.032;2023-08-01T22:32:29;16.30;99.90
43015;DHT22;28637;50.554;7.032;2023-08-01T22:37:30;16.20;99.90
43015;DHT22;28637;50.554;7.032;2023-08-01T22:42:30;16.20;99.90
43015;DHT22;28637;50.554;7.032;2023-08-01T22:47:31;16.20;99.90
43015;DHT22;28637;50.554;7.032;2023-08-01T22:52:31;16.10;99.90
43015;DHT22;28637;50.554;7.032;2023-08-01T22:57:32;16.00;99.90
43015;DHT22;28637;50.554;7.032;2023-08-01T23:02:32;16.00;99.90
43015;DHT22;28637;50.554;7.032;2023-08-01T23:07:33;16.00;99.90
43015;DHT22;28637;50.554;7.032;2023-08-01T23:12:34;16.00;99.90
43015;DHT22;28637;50.554;7.032;2023-08-01T23:17:34;16.00;99.90
43015;DHT22;28637;50.554;7.032;2023-08-01T23:22:35;15.90;99.90
43015;DHT22;28637;50.554;7.032;2023-08-01T23:27:35;15.80;99.90
43015;DHT22;28637;50.554;7.032;2023-08-01T23:32:36;15.60;99.90
43015;DHT22;28637;50.554;7.032;2023-08-01T23:37:37;15.60;99.90
43015;DHT22;28637;50.554;7.032;2023-08-01T23:42:37;15.40;99.90
43015;DHT22;28637;50.554;7.032;2023-08-01T23:47:38;15.30;99.90
43015;DHT22;28637;50.554;7.032;2023-08-01T23:52:41;15.40;99.90
43015;DHT22;28637;50.554;7.032;2023-08-01T23:57:42;15.40;99.90
